createdAt,value
2023-09-30T00:00:29.040Z,102123.20
2023-09-30T00:03:16.874Z,102138.77
2023-09-30T00:05:44.730Z,102146.95
2023-09-30T00:08:12.521Z,102150.30
2023-09-30T00:10:40.350Z,102152.30
2023-09-30T00:13:08.136Z,102158.99
2023-09-30T00:15:35.875Z,102155.20
2023-09-30T00:18:03.808Z,102148.16
2023-09-30T00:20:31.762Z,102140.03
2023-09-30T00:22:59.516Z,102148.40
2023-09-30T00:25:28.899Z,102166.24
2023-09-30T00:27:57.299Z,102176.57
2023-09-30T00:30:25.180Z,102175.21
2023-09-30T00:32:53.823Z,102168.06
2023-09-30T00:35:21.599Z,102157.21
2023-09-30T00:37:52.016Z,102154.53
2023-09-30T00:40:19.742Z,102151.00
2023-09-30T00:42:47.714Z,102148.20
2023-09-30T00:45:15.572Z,102151.25
2023-09-30T00:47:43.539Z,102157.00
2023-09-30T00:50:13.336Z,102165.57
2023-09-30T00:52:42.949Z,102166.48
2023-09-30T00:55:12.082Z,102151.54
2023-09-30T00:57:40.460Z,102149.23
2023-09-30T01:00:13.081Z,102145.75
2023-09-30T01:02:42.266Z,102146.33
2023-09-30T01:05:10.665Z,102147.92
2023-09-30T01:07:41.479Z,102161.42
2023-09-30T01:10:09.412Z,102164.90
2023-09-30T01:12:37.275Z,102161.40
2023-09-30T01:15:08.675Z,102157.46
2023-09-30T01:17:37.932Z,102148.08
2023-09-30T01:20:07.792Z,102149.09
2023-09-30T01:22:35.726Z,102148.86
2023-09-30T01:25:03.495Z,102155.20
2023-09-30T01:27:31.606Z,102156.61
2023-09-30T01:29:59.904Z,102156.95
2023-09-30T01:35:29.871Z,102160.90
2023-09-30T01:37:57.958Z,102160.66
2023-09-30T01:40:25.785Z,102159.89
2023-09-30T01:42:53.498Z,102160.38
2023-09-30T01:45:21.342Z,102164.66
2023-09-30T01:47:49.085Z,102159.33
2023-09-30T01:50:16.790Z,102150.35
2023-09-30T01:52:44.514Z,102135.45
2023-09-30T01:55:12.440Z,102127.80
2023-09-30T01:57:40.319Z,102128.34
2023-09-30T02:00:11.294Z,102127.32
2023-09-30T02:02:39.444Z,102125.96
2023-09-30T02:05:09.354Z,102129.21
2023-09-30T02:07:37.182Z,102126.15
2023-09-30T02:10:05.176Z,102127.23
2023-09-30T02:12:32.942Z,102127.05
2023-09-30T02:15:00.741Z,102130.65
2023-09-30T02:17:28.634Z,102127.03
2023-09-30T02:19:56.417Z,102121.66
2023-09-30T02:22:25.870Z,102115.38
2023-09-30T02:24:55.594Z,102114.08
2023-09-30T02:27:23.420Z,102115.95
2023-09-30T02:29:51.250Z,102126.73
2023-09-30T02:32:19.085Z,102125.72
2023-09-30T02:34:47.511Z,102122.11
2023-09-30T02:37:15.279Z,102128.47
2023-09-30T02:39:44.420Z,102129.61
2023-09-30T02:42:12.296Z,102125.81
2023-09-30T02:44:40.108Z,102122.52
2023-09-30T02:47:09.742Z,102113.96
2023-09-30T02:49:38.134Z,102108.27
2023-09-30T02:52:06.613Z,102113.16
2023-09-30T02:54:34.347Z,102119.38
2023-09-30T02:57:07.883Z,102122.08
2023-09-30T10:34:13.445Z,102174.81
2023-09-30T10:36:42.512Z,102164.77
2023-09-30T10:39:19.336Z,102161.14
2023-09-30T10:41:47.301Z,102162.77
2023-09-30T10:44:39.412Z,102155.30
2023-09-30T10:47:27.473Z,102142.98
2023-09-30T10:49:55.230Z,102150.91
2023-09-30T10:52:24.784Z,102151.61
2023-09-30T10:54:52.758Z,102148.31
2023-09-30T10:57:30.673Z,102136.52
2023-09-30T11:00:15.446Z,102124.64
2023-09-30T11:02:50.135Z,102128.54
2023-09-30T11:05:19.298Z,102111.90
2023-09-30T11:07:49.459Z,102109.39
2023-09-30T11:10:18.097Z,102103.98
2023-09-30T11:12:59.160Z,102093.55
2023-09-30T11:15:28.889Z,102094.66
2023-09-30T11:18:13.688Z,102086.95
2023-09-30T11:20:44.608Z,102083.70
2023-09-30T11:23:15.542Z,102085.23
2023-09-30T11:25:43.624Z,102086.84
2023-09-30T11:28:18.436Z,102085.08
2023-09-30T11:30:56.410Z,102083.98
2023-09-30T11:33:24.467Z,102089.64
2023-09-30T11:36:06.523Z,102089.02
2023-09-30T11:38:35.772Z,102083.55
2023-09-30T11:45:31.679Z,102074.13
2023-09-30T11:48:26.169Z,102079.55
2023-09-30T11:50:56.555Z,102081.64
2023-09-30T11:53:26.225Z,102075.96
